Time;durP1;ratioP1;P1;durP2;ratioP2;P2;SDS_P1;SDS_P2;PMS_P1;PMS_P2;Temp;Humidity;BMP_temperature;BMP_pressure;BME280_temperature;BME280_humidity;BME280_pressure;Samples;Min_cycle;Max_cycle;Signal;HPM_P1;HPM_P2
2022/08/21 00:01:56;;;;;;;;;;;16.50;99.90;;;;;;4958059;28;19988;-85
2022/08/21 00:04:22;;;;;;;;;;;16.50;99.90;;;;;;4939881;28;20372;-85
2022/08/21 00:06:49;;;;;;;;;;;16.40;99.90;;;;;;4947904;28;19922;-83
2022/08/21 00:09:15;;;;;;;;;;;16.40;99.90;;;;;;4953980;28;20123;-83
2022/08/21 00:11:41;;;;;;;;;;;16.40;99.90;;;;;;4929034;29;19934;-81
2022/08/21 00:14:07;;;;;;;;;;;16.40;99.90;;;;;;4938859;28;19937;-81
2022/08/21 00:16:33;;;;;;;;;;;16.40;99.90;;;;;;4934651;29;19927;-81
2022/08/21 00:18:59;;;;;;;;;;;16.30;99.90;;;;;;4948684;28;20277;-81
2022/08/21 00:21:25;;;;;;;;;;;16.30;99.90;;;;;;4938218;28;19926;-78
2022/08/21 00:23:51;;;;;;;;;;;16.30;99.90;;;;;;4939145;28;19941;-82
2022/08/21 00:26:18;;;;;;;;;;;16.30;99.90;;;;;;4938135;28;20167;-84
2022/08/21 00:28:45;;;;;;;;;;;16.30;99.90;;;;;;4937400;28;20290;-83
2022/08/21 00:31:12;;;;;;;;;;;16.30;99.90;;;;;;4953326;28;19938;-82
2022/08/21 00:33:38;;;;;;;;;;;16.20;99.90;;;;;;4935065;28;19926;-81
2022/08/21 00:36:07;;;;;;;;;;;16.20;99.90;;;;;;4938050;28;20313;-84
2022/08/21 00:38:32;;;;;;;;;;;16.20;99.90;;;;;;4951782;28;20079;-81
2022/08/21 00:40:59;;;;;;;;;;;16.10;99.90;;;;;;4922022;28;19934;-80
2022/08/21 00:43:28;;;;;;;;;;;16.10;99.90;;;;;;4953953;28;20258;-81
2022/08/21 00:45:55;;;;;;;;;;;16.10;99.90;;;;;;4953206;28;19922;-82
2022/08/21 00:48:21;;;;;;;;;;;16.00;99.90;;;;;;4934953;28;19987;-82
2022/08/21 00:51:10;;;;;;;;;;;16.00;99.90;;;;;;4954324;28;20254;-78
2022/08/21 00:53:37;;;;;;;;;;;16.00;99.90;;;;;;4927596;28;19937;-78
2022/08/21 00:56:04;;;;;;;;;;;16.00;99.90;;;;;;4940150;28;19949;-80
2022/08/21 00:58:35;;;;;;;;;;;15.90;99.90;;;;;;4937561;28;20194;-82
2022/08/21 01:01:03;;;;;;;;;;;15.90;99.90;;;;;;4935064;28;20170;-78
2022/08/21 01:03:31;;;;;;;;;;;15.90;99.90;;;;;;4954462;28;19926;-83
2022/08/21 01:06:00;;;;;;;;;;;15.80;99.90;;;;;;4937976;28;19929;-80
2022/08/21 01:08:28;;;;;;;;;;;15.80;99.90;;;;;;4953931;28;19930;-78
2022/08/21 01:10:54;;;;;;;;;;;15.70;99.90;;;;;;4937553;28;19930;-80
2022/08/21 01:13:22;;;;;;;;;;;15.70;99.90;;;;;;4937350;28;19934;-82
2022/08/21 01:15:49;;;;;;;;;;;15.70;99.90;;;;;;4951897;28;19941;-82
2022/08/21 01:18:15;;;;;;;;;;;15.70;99.90;;;;;;4947036;28;19985;-84
2022/08/21 01:21:04;;;;;;;;;;;15.70;99.90;;;;;;4953367;28;19930;-81
2022/08/21 01:23:30;;;;;;;;;;;15.70;99.90;;;;;;4956096;28;20506;-77
2022/08/21 01:25:56;;;;;;;;;;;15.70;99.90;;;;;;4952752;28;20005;-83
2022/08/21 01:28:22;;;;;;;;;;;15.70;99.90;;;;;;4918286;28;20487;-80
2022/08/21 01:30:50;;;;;;;;;;;15.70;99.90;;;;;;4914814;29;20484;-82
2022/08/21 01:33:17;;;;;;;;;;;15.70;99.90;;;;;;4950504;28;19977;-81
2022/08/21 01:35:43;;;;;;;;;;;15.60;99.90;;;;;;4953932;28;20293;-81
2022/08/21 01:38:09;;;;;;;;;;;15.70;99.90;;;;;;4953232;28;20264;-83
2022/08/21 01:40:34;;;;;;;;;;;15.70;99.90;;;;;;4947113;28;19982;-81
2022/08/21 01:43:00;;;;;;;;;;;15.60;99.90;;;;;;4975522;28;19996;-81
2022/08/21 01:45:26;;;;;;;;;;;15.60;99.90;;;;;;4934338;28;19973;-79
2022/08/21 01:47:52;;;;;;;;;;;15.60;99.90;;;;;;4975332;28;19930;-82
2022/08/21 01:50:19;;;;;;;;;;;15.60;99.90;;;;;;4952734;28;20173;-83
2022/08/21 01:52:44;;;;;;;;;;;15.60;99.90;;;;;;4949436;28;19952;-81
2022/08/21 01:55:11;;;;;;;;;;;15.60;99.90;;;;;;4936792;28;19933;-82
2022/08/21 01:57:38;;;;;;;;;;;15.60;99.90;;;;;;4952957;28;19933;-84
2022/08/21 02:00:05;;;;;;;;;;;15.60;99.90;;;;;;4934614;28;19930;-82
2022/08/21 02:02:31;;;;;;;;;;;15.60;99.90;;;;;;4943690;28;20118;-81
2022/08/21 02:04:56;;;;;;;;;;;15.50;99.90;;;;;;4962295;28;20033;-80
2022/08/21 02:07:23;;;;;;;;;;;15.60;99.90;;;;;;5002418;23;20484;-80
2022/08/21 02:09:49;;;;;;;;;;;15.60;99.90;;;;;;4926320;28;20464;-82
2022/08/21 02:12:14;;;;;;;;;;;15.60;99.90;;;;;;4923551;28;20424;-82
2022/08/21 02:14:40;;;;;;;;;;;15.50;99.90;;;;;;4896610;28;19958;-83
2022/08/21 02:17:06;;;;;;;;;;;15.50;99.90;;;;;;4914898;28;19978;-84
2022/08/21 02:19:50;;;;;;;;;;;15.50;99.90;;;;;;4952582;28;20336;-83
2022/08/21 02:22:34;;;;;;;;;;;15.50;99.90;;;;;;4938660;28;19989;-82
2022/08/21 02:25:00;;;;;;;;;;;15.50;99.90;;;;;;4935166;28;19984;-82
2022/08/21 02:27:26;;;;;;;;;;;15.50;99.90;;;;;;4934655;29;20084;-81
2022/08/21 02:29:51;;;;;;;;;;;15.50;99.90;;;;;;4914906;28;19937;-82
2022/08/21 02:32:17;;;;;;;;;;;15.50;99.90;;;;;;4900578;28;19927;-80
2022/08/21 02:34:43;;;;;;;;;;;15.50;99.90;;;;;;4902070;29;19926;-80
2022/08/21 02:37:09;;;;;;;;;;;15.50;99.90;;;;;;4904409;28;19927;-82
2022/08/21 02:39:34;;;;;;;;;;;15.40;99.90;;;;;;4916729;29;19927;-84
2022/08/21 02:42:00;;;;;;;;;;;15.40;99.90;;;;;;4888750;29;20025;-84
2022/08/21 02:44:26;;;;;;;;;;;15.40;99.90;;;;;;4921452;28;19984;-82
2022/08/21 02:46:52;;;;;;;;;;;15.40;99.90;;;;;;4909533;29;19922;-81
2022/08/21 02:49:18;;;;;;;;;;;15.40;99.90;;;;;;4913182;29;20014;-83
2022/08/21 02:51:43;;;;;;;;;;;15.30;99.90;;;;;;4898524;29;20575;-82
2022/08/21 02:54:09;;;;;;;;;;;15.30;99.90;;;;;;4932972;29;19926;-82
2022/08/21 02:56:36;;;;;;;;;;;15.30;99.90;;;;;;4932561;29;20381;-81
2022/08/21 02:59:01;;;;;;;;;;;15.30;99.90;;;;;;4931236;29;19961;-81
2022/08/21 03:01:27;;;;;;;;;;;15.20;99.90;;;;;;4910509;29;20330;-81
2022/08/21 03:03:53;;;;;;;;;;;15.20;99.90;;;;;;4935575;29;19930;-81
2022/08/21 03:06:20;;;;;;;;;;;15.20;99.90;;;;;;4930774;29;19986;-84
2022/08/21 03:08:46;;;;;;;;;;;15.20;99.90;;;;;;4935692;28;20012;-79
2022/08/21 03:11:12;;;;;;;;;;;15.10;99.90;;;;;;4935919;28;19965;-80
2022/08/21 03:13:38;;;;;;;;;;;15.20;99.90;;;;;;4936540;29;19945;-81
2022/08/21 03:16:04;;;;;;;;;;;15.10;99.90;;;;;;4935257;28;19973;-82
2022/08/21 03:18:30;;;;;;;;;;;15.20;99.90;;;;;;4938632;29;19930;-82
2022/08/21 03:20:56;;;;;;;;;;;15.20;99.90;;;;;;4935779;29;19953;-81
2022/08/21 03:23:22;;;;;;;;;;;15.10;99.90;;;;;;4953781;28;19930;-81
2022/08/21 03:25:50;;;;;;;;;;;15.10;99.90;;;;;;4935697;29;19929;-84
2022/08/21 03:28:18;;;;;;;;;;;15.10;99.90;;;;;;4936154;28;20324;-82
2022/08/21 03:30:44;;;;;;;;;;;15.10;99.90;;;;;;4953174;28;19926;-83
2022/08/21 03:33:11;;;;;;;;;;;15.10;99.90;;;;;;4919537;28;19953;-83
2022/08/21 03:35:37;;;;;;;;;;;15.10;99.90;;;;;;4953238;28;20989;-80
2022/08/21 03:38:02;;;;;;;;;;;15.10;99.90;;;;;;4914954;28;19974;-81
2022/08/21 03:40:28;;;;;;;;;;;15.10;99.90;;;;;;4931917;28;20022;-82
2022/08/21 03:42:54;;;;;;;;;;;15.10;99.90;;;;;;4953106;28;19934;-82
2022/08/21 03:45:20;;;;;;;;;;;15.00;99.90;;;;;;4918947;29;19926;-81
2022/08/21 03:47:50;;;;;;;;;;;15.00;99.90;;;;;;4924578;28;20433;-82
2022/08/21 03:50:17;;;;;;;;;;;15.00;99.90;;;;;;4896217;29;19927;-84
2022/08/21 03:52:45;;;;;;;;;;;15.00;99.90;;;;;;4904107;28;19938;-81
2022/08/21 03:55:11;;;;;;;;;;;15.00;99.90;;;;;;4944628;29;19982;-80
2022/08/21 03:57:36;;;;;;;;;;;15.00;99.90;;;;;;4908297;28;20338;-83
2022/08/21 04:00:04;;;;;;;;;;;15.00;99.90;;;;;;4921172;28;19981;-83
2022/08/21 04:02:30;;;;;;;;;;;15.00;99.90;;;;;;4939278;28;19934;-82
2022/08/21 04:04:56;;;;;;;;;;;15.00;99.90;;;;;;4905068;28;19934;-81
2022/08/21 04:07:21;;;;;;;;;;;15.00;99.90;;;;;;4918943;28;21239;-81
2022/08/21 04:09:47;;;;;;;;;;;15.00;99.90;;;;;;4894449;29;19950;-82
2022/08/21 04:12:13;;;;;;;;;;;15.00;99.90;;;;;;4932546;28;19934;-82
2022/08/21 04:14:39;;;;;;;;;;;15.00;99.90;;;;;;4933933;29;19989;-82
2022/08/21 04:17:05;;;;;;;;;;;15.00;99.90;;;;;;4933856;29;19933;-84
2022/08/21 04:19:31;;;;;;;;;;;14.90;99.90;;;;;;4925081;29;19926;-81
2022/08/21 04:21:57;;;;;;;;;;;14.90;99.90;;;;;;4919444;28;20004;-84
2022/08/21 04:24:23;;;;;;;;;;;14.90;99.90;;;;;;4935376;29;19934;-86
2022/08/21 04:26:48;;;;;;;;;;;14.90;99.90;;;;;;4918634;28;19946;-82
2022/08/21 04:29:14;;;;;;;;;;;14.90;99.90;;;;;;4911679;29;19950;-83
2022/08/21 04:31:40;;;;;;;;;;;14.90;99.90;;;;;;4914499;28;19931;-82
2022/08/21 04:34:06;;;;;;;;;;;14.90;99.90;;;;;;4919357;29;19953;-85
2022/08/21 04:36:33;;;;;;;;;;;14.90;99.90;;;;;;4922381;28;20013;-83
2022/08/21 04:38:59;;;;;;;;;;;14.50;99.90;;;;;;4935265;29;20378;-82
2022/08/21 04:41:25;;;;;;;;;;;14.90;99.90;;;;;;4909581;28;20069;-84
2022/08/21 04:43:51;;;;;;;;;;;14.90;99.90;;;;;;4910986;29;20403;-83
2022/08/21 04:46:18;;;;;;;;;;;14.90;99.90;;;;;;4913208;28;19926;-82
2022/08/21 04:48:44;;;;;;;;;;;14.90;99.90;;;;;;4935734;29;20406;-80
2022/08/21 04:51:15;;;;;;;;;;;14.90;99.90;;;;;;4936992;28;19927;-81
2022/08/21 04:53:46;;;;;;;;;;;14.90;99.90;;;;;;4934515;29;19933;-80
2022/08/21 04:56:50;;;;;;;;;;;15.00;99.90;;;;;;4934743;28;19922;-84
2022/08/21 04:59:36;;;;;;;;;;;15.00;99.90;;;;;;4816396;29;19932;-87
2022/08/21 05:02:02;;;;;;;;;;;15.00;99.90;;;;;;4822917;29;19928;-83
2022/08/21 05:04:30;;;;;;;;;;;15.00;99.90;;;;;;4889409;28;20393;-83
2022/08/21 05:06:57;;;;;;;;;;;15.10;99.90;;;;;;4918700;29;20387;-87
2022/08/21 05:09:24;;;;;;;;;;;15.10;99.90;;;;;;4950646;28;19953;-85
2022/08/21 05:11:51;;;;;;;;;;;15.10;99.90;;;;;;4928242;28;19984;-85
2022/08/21 05:14:17;;;;;;;;;;;15.20;99.90;;;;;;4933788;29;19945;-80
2022/08/21 05:16:43;;;;;;;;;;;15.20;99.90;;;;;;4916765;28;19926;-85
2022/08/21 05:19:10;;;;;;;;;;;15.20;99.90;;;;;;4913010;29;19923;-84
2022/08/21 05:21:37;;;;;;;;;;;15.30;99.90;;;;;;4918974;29;20284;-82
2022/08/21 05:24:03;;;;;;;;;;;15.30;99.90;;;;;;4932307;28;20654;-82
2022/08/21 05:26:29;;;;;;;;;;;15.30;99.90;;;;;;4902703;29;19934;-84
2022/08/21 05:28:55;;;;;;;;;;;15.40;99.90;;;;;;4917363;29;20110;-85
2022/08/21 05:31:22;;;;;;;;;;;15.40;99.90;;;;;;4907961;29;20473;-84
2022/08/21 05:33:47;;;;;;;;;;;15.50;99.90;;;;;;4918037;29;19941;-81
2022/08/21 05:36:13;;;;;;;;;;;15.50;99.90;;;;;;4950332;28;20347;-90
2022/08/21 05:38:39;;;;;;;;;;;15.60;99.90;;;;;;4951330;28;20301;-82
2022/08/21 05:41:05;;;;;;;;;;;15.60;99.90;;;;;;4933206;29;19933;-83
2022/08/21 05:43:35;;;;;;;;;;;15.70;99.90;;;;;;4951295;28;19926;-82
2022/08/21 05:46:04;;;;;;;;;;;15.80;99.90;;;;;;4946294;28;20594;-85
2022/08/21 05:48:33;;;;;;;;;;;15.80;99.90;;;;;;4933126;29;20580;-82
2022/08/21 05:51:03;;;;;;;;;;;15.90;99.90;;;;;;4917744;28;20030;-81
2022/08/21 05:53:29;;;;;;;;;;;16.00;99.90;;;;;;4935229;28;19997;-87
2022/08/21 05:55:55;;;;;;;;;;;16.00;99.90;;;;;;4904756;28;19969;-81
2022/08/21 05:58:22;;;;;;;;;;;16.10;99.90;;;;;;4937726;28;20316;-85
2022/08/21 06:00:49;;;;;;;;;;;16.10;99.90;;;;;;4902943;28;20599;-89
2022/08/21 06:03:17;;;;;;;;;;;16.20;99.90;;;;;;4919895;28;20399;-88
2022/08/21 06:05:43;;;;;;;;;;;16.30;99.90;;;;;;4935669;28;20013;-82
2022/08/21 06:08:08;;;;;;;;;;;16.30;99.90;;;;;;4951899;28;20008;-82
2022/08/21 06:10:34;;;;;;;;;;;16.40;99.90;;;;;;4919645;28;19972;-84
2022/08/21 06:13:00;;;;;;;;;;;16.50;99.90;;;;;;4937641;28;19926;-81
2022/08/21 06:15:26;;;;;;;;;;;16.50;99.90;;;;;;4950445;28;19926;-81
2022/08/21 06:17:54;;;;;;;;;;;16.60;99.90;;;;;;4938545;28;19966;-85
2022/08/21 06:20:19;;;;;;;;;;;16.70;99.90;;;;;;4947110;28;19989;-83
2022/08/21 06:22:45;;;;;;;;;;;16.70;99.90;;;;;;4933544;28;19970;-82
2022/08/21 06:25:11;;;;;;;;;;;16.80;99.90;;;;;;4937057;28;19949;-84
2022/08/21 06:27:37;;;;;;;;;;;16.90;99.90;;;;;;4901478;28;19938;-83
2022/08/21 06:30:04;;;;;;;;;;;17.00;99.90;;;;;;4930748;28;19933;-88
2022/08/21 06:32:29;;;;;;;;;;;17.10;99.90;;;;;;4917622;28;19945;-82
2022/08/21 06:34:56;;;;;;;;;;;17.20;99.90;;;;;;4917393;28;20025;-83
2022/08/21 06:37:22;;;;;;;;;;;17.40;99.90;;;;;;4917301;28;19930;-83
2022/08/21 06:39:48;;;;;;;;;;;17.60;99.90;;;;;;4919999;28;20005;-86
2022/08/21 06:42:15;;;;;;;;;;;17.90;99.90;;;;;;4908464;28;19926;-84
2022/08/21 06:44:42;;;;;;;;;;;18.20;99.90;;;;;;4899588;28;20012;-83
2022/08/21 06:47:08;;;;;;;;;;;18.40;99.90;;;;;;4917943;28;19977;-84
2022/08/21 06:49:35;;;;;;;;;;;18.50;99.90;;;;;;4933044;28;19974;-84
2022/08/21 06:52:01;;;;;;;;;;;18.60;99.90;;;;;;4918234;28;19930;-82
2022/08/21 06:54:27;;;;;;;;;;;18.80;99.90;;;;;;4926987;28;19934;-83
2022/08/21 06:56:53;;;;;;;;;;;19.00;99.90;;;;;;4924015;28;19931;-85
2022/08/21 06:59:19;;;;;;;;;;;19.10;99.90;;;;;;4929407;28;19934;-81
2022/08/21 07:01:44;;;;;;;;;;;19.20;99.90;;;;;;4931583;28;19930;-84
2022/08/21 07:04:11;;;;;;;;;;;19.40;99.90;;;;;;4909493;28;19957;-83
2022/08/21 07:06:36;;;;;;;;;;;19.60;99.90;;;;;;4916678;28;19926;-79
2022/08/21 07:09:05;;;;;;;;;;;19.70;99.90;;;;;;4923163;28;19934;-83
2022/08/21 07:11:31;;;;;;;;;;;19.90;99.90;;;;;;4928002;28;19926;-80
2022/08/21 07:13:58;;;;;;;;;;;20.50;99.90;;;;;;4927768;28;19996;-80
2022/08/21 07:16:24;;;;;;;;;;;21.10;99.90;;;;;;4929996;28;19931;-80
2022/08/21 07:18:50;;;;;;;;;;;21.70;99.90;;;;;;4946296;28;19965;-81
2022/08/21 07:21:16;;;;;;;;;;;22.40;99.90;;;;;;4915661;28;19970;-83
2022/08/21 07:23:43;;;;;;;;;;;23.20;99.90;;;;;;4931603;28;19927;-83
2022/08/21 07:26:09;;;;;;;;;;;24.20;99.90;;;;;;4914671;28;20377;-81
2022/08/21 07:28:35;;;;;;;;;;;25.20;99.90;;;;;;4933453;28;19938;-82
2022/08/21 07:31:01;;;;;;;;;;;25.80;99.90;;;;;;4929197;28;19974;-83
2022/08/21 07:33:28;;;;;;;;;;;26.40;99.90;;;;;;4914544;28;19931;-83
2022/08/21 07:35:54;;;;;;;;;;;26.90;99.90;;;;;;4916314;28;20013;-79
2022/08/21 07:38:21;;;;;;;;;;;27.40;99.90;;;;;;4921905;28;19977;-82
2022/08/21 07:40:47;;;;;;;;;;;27.80;99.90;;;;;;4951863;28;19930;-87
2022/08/21 07:43:16;;;;;;;;;;;28.30;98.70;;;;;;4927106;28;19927;-87
2022/08/21 07:45:42;;;;;;;;;;;28.50;95.80;;;;;;4917048;28;19933;-80
2022/08/21 07:48:09;;;;;;;;;;;28.30;93.10;;;;;;4919361;28;19999;-85
2022/08/21 07:50:35;;;;;;;;;;;27.80;94.60;;;;;;4938700;28;19937;-81
2022/08/21 07:53:02;;;;;;;;;;;27.20;94.50;;;;;;4899740;28;19922;-81
2022/08/21 07:55:27;;;;;;;;;;;26.70;96.10;;;;;;4919589;28;19997;-81
2022/08/21 07:57:53;;;;;;;;;;;26.30;96.50;;;;;;4919144;28;19930;-80
2022/08/21 08:00:21;;;;;;;;;;;26.10;95.80;;;;;;4919005;28;20370;-81
2022/08/21 08:02:51;;;;;;;;;;;26.20;96.60;;;;;;4918616;28;19938;-82
2022/08/21 08:05:18;;;;;;;;;;;26.20;95.30;;;;;;4934416;28;19985;-84
2022/08/21 08:07:44;;;;;;;;;;;26.60;95.20;;;;;;4873287;28;1901511;-86
2022/08/21 08:10:14;;;;;;;;;;;27.30;93.70;;;;;;4919611;28;19927;-85
2022/08/21 08:12:41;;;;;;;;;;;27.90;93.20;;;;;;4921049;28;19925;-83
2022/08/21 08:15:11;;;;;;;;;;;28.30;91.90;;;;;;4919086;28;19941;-83
2022/08/21 08:17:46;;;;;;;;;;;28.60;90.80;;;;;;4940580;28;20002;-85
2022/08/21 08:20:26;;;;;;;;;;;29.10;91.50;;;;;;4942552;28;19946;-84
2022/08/21 08:22:52;;;;;;;;;;;29.10;89.50;;;;;;4932939;29;19949;-85
2022/08/21 08:25:18;;;;;;;;;;;29.50;88.60;;;;;;4919836;28;19923;-83
2022/08/21 08:27:44;;;;;;;;;;;29.60;86.20;;;;;;4937683;29;19926;-85
2022/08/21 08:30:11;;;;;;;;;;;29.70;88.50;;;;;;4918727;29;19930;-82
2022/08/21 08:32:37;;;;;;;;;;;29.70;87.10;;;;;;4918506;29;20040;-84
2022/08/21 08:35:03;;;;;;;;;;;29.90;87.10;;;;;;4918035;29;19927;-81
2022/08/21 08:37:29;;;;;;;;;;;29.90;85.60;;;;;;4915364;29;20010;-83
2022/08/21 08:39:55;;;;;;;;;;;29.80;83.30;;;;;;4932384;28;20688;-84
2022/08/21 08:42:27;;;;;;;;;;;29.70;86.10;;;;;;4913006;29;19930;-88
2022/08/21 08:45:13;;;;;;;;;;;29.80;85.80;;;;;;4918730;28;19927;-84
2022/08/21 08:47:44;;;;;;;;;;;29.70;84.50;;;;;;4932533;28;20024;-84
2022/08/21 08:50:10;;;;;;;;;;;29.50;85.20;;;;;;4934588;29;20043;-86
2022/08/21 08:52:40;;;;;;;;;;;29.10;83.70;;;;;;4918011;28;19935;-82
2022/08/21 08:55:08;;;;;;;;;;;28.90;87.00;;;;;;4934176;29;20005;-84
2022/08/21 08:57:39;;;;;;;;;;;28.60;88.00;;;;;;4935265;28;19927;-85
2022/08/21 09:00:10;;;;;;;;;;;28.20;86.50;;;;;;4937310;28;19944;-93
2022/08/21 09:02:40;;;;;;;;;;;27.80;87.40;;;;;;4937190;28;20002;-80
2022/08/21 09:05:07;;;;;;;;;;;27.40;90.50;;;;;;4918829;28;19981;-85
2022/08/21 09:07:38;;;;;;;;;;;27.10;91.40;;;;;;4919332;29;19973;-82
2022/08/21 09:10:13;;;;;;;;;;;27.00;92.60;;;;;;4915377;29;19927;-83
2022/08/21 09:12:51;;;;;;;;;;;26.70;92.40;;;;;;4900335;29;20290;-81
2022/08/21 09:15:29;;;;;;;;;;;26.40;93.10;;;;;;4912639;29;20476;-85
2022/08/21 09:18:29;;;;;;;;;;;26.20;93.70;;;;;;4933158;29;19926;-87
2022/08/21 09:21:14;;;;;;;;;;;26.10;94.20;;;;;;4897889;29;20018;-81
2022/08/21 09:23:59;;;;;;;;;;;26.00;95.00;;;;;;4894771;29;19937;-85
2022/08/21 09:26:27;;;;;;;;;;;26.00;95.50;;;;;;4914678;29;19949;-82
2022/08/21 09:28:54;;;;;;;;;;;26.00;95.50;;;;;;4898684;29;19931;-83
2022/08/21 09:31:26;;;;;;;;;;;25.90;96.20;;;;;;4898262;29;20279;-83
2022/08/21 09:34:03;;;;;;;;;;;25.90;96.40;;;;;;4898775;29;19927;-82
2022/08/21 09:36:34;;;;;;;;;;;25.90;96.80;;;;;;4912063;29;20017;-83
2022/08/21 09:39:00;;;;;;;;;;;26.00;97.20;;;;;;4897237;29;19927;-83
2022/08/21 09:41:30;;;;;;;;;;;26.20;98.10;;;;;;4913806;29;20295;-82
2022/08/21 09:43:56;;;;;;;;;;;26.30;97.70;;;;;;4897382;29;20025;-82
2022/08/21 09:46:24;;;;;;;;;;;26.40;98.00;;;;;;4908471;29;20057;-83
2022/08/21 09:48:51;;;;;;;;;;;26.50;97.10;;;;;;4912587;29;19938;-86
2022/08/21 09:51:19;;;;;;;;;;;26.60;96.70;;;;;;4914239;29;19942;-80
2022/08/21 09:53:49;;;;;;;;;;;26.80;96.10;;;;;;4917326;29;20395;-81
2022/08/21 09:59:16;;;;;;;;;;;27.00;97.20;;;;;;4914397;29;20033;-86
2022/08/21 10:01:44;;;;;;;;;;;27.10;95.60;;;;;;4913947;29;19926;-83
2022/08/21 10:04:11;;;;;;;;;;;26.90;95.00;;;;;;4915580;29;19969;-82
2022/08/21 10:06:37;;;;;;;;;;;27.10;95.20;;;;;;4909801;29;20334;-86
2022/08/21 10:09:11;;;;;;;;;;;27.10;95.00;;;;;;4912138;28;20009;-79
2022/08/21 10:11:39;;;;;;;;;;;27.20;95.10;;;;;;4933127;28;20411;-81
2022/08/21 10:14:17;;;;;;;;;;;27.20;94.70;;;;;;4931531;28;20452;-84
2022/08/21 10:16:58;;;;;;;;;;;27.30;95.30;;;;;;4934592;28;19933;-81
2022/08/21 10:19:56;;;;;;;;;;;27.40;94.70;;;;;;4932995;28;19937;-84
2022/08/21 10:22:43;;;;;;;;;;;27.30;93.40;;;;;;4920263;28;19927;-82
2022/08/21 10:25:14;;;;;;;;;;;27.30;93.90;;;;;;4930682;28;19966;-83
2022/08/21 10:27:46;;;;;;;;;;;27.50;94.00;;;;;;4934043;28;19977;-78
2022/08/21 10:30:34;;;;;;;;;;;27.50;92.90;;;;;;4931223;28;19926;-81
2022/08/21 10:32:59;;;;;;;;;;;27.70;94.50;;;;;;4931197;28;20300;-79
2022/08/21 10:35:31;;;;;;;;;;;27.80;92.30;;;;;;4914307;28;19933;-80
2022/08/21 10:38:00;;;;;;;;;;;28.10;94.00;;;;;;4934350;28;19931;-79
2022/08/21 10:40:36;;;;;;;;;;;27.80;93.40;;;;;;4916877;28;20449;-85
2022/08/21 10:43:02;;;;;;;;;;;27.60;92.60;;;;;;4916075;28;19927;-82
2022/08/21 10:45:28;;;;;;;;;;;27.50;92.50;;;;;;4930199;28;19934;-81
2022/08/21 10:47:55;;;;;;;;;;;27.20;92.80;;;;;;4933974;28;19927;-83
2022/08/21 10:50:30;;;;;;;;;;;26.80;92.90;;;;;;4931138;28;20066;-82
2022/08/21 10:52:56;;;;;;;;;;;26.50;93.20;;;;;;4933618;28;20460;-83
2022/08/21 10:55:25;;;;;;;;;;;26.20;93.20;;;;;;4930064;28;20077;-83
2022/08/21 10:57:58;;;;;;;;;;;25.90;93.90;;;;;;4915616;28;20322;-82
2022/08/21 11:00:29;;;;;;;;;;;25.60;94.40;;;;;;4912362;28;19927;-83
2022/08/21 11:02:58;;;;;;;;;;;25.40;94.90;;;;;;4932515;28;20020;-85
2022/08/21 11:05:31;;;;;;;;;;;25.10;95.50;;;;;;4915589;28;20545;-82
2022/08/21 11:08:06;;;;;;;;;;;24.80;96.40;;;;;;4931145;28;19990;-82
2022/08/21 11:10:52;;;;;;;;;;;24.60;97.90;;;;;;4944915;28;19954;-82
2022/08/21 11:13:26;;;;;;;;;;;24.40;98.90;;;;;;4930903;28;19935;-84
2022/08/21 11:16:13;;;;;;;;;;;24.30;99.90;;;;;;4929449;28;19926;-82
2022/08/21 11:18:42;;;;;;;;;;;24.50;99.90;;;;;;4914316;28;19933;-84
2022/08/21 11:21:31;;;;;;;;;;;24.50;99.90;;;;;;4933209;28;20568;-80
2022/08/21 11:24:03;;;;;;;;;;;24.50;99.90;;;;;;4933078;28;19934;-83
2022/08/21 11:26:32;;;;;;;;;;;24.80;99.90;;;;;;4917430;28;19938;-80
2022/08/21 11:29:08;;;;;;;;;;;25.20;99.90;;;;;;4933681;28;19941;-84
2022/08/21 11:31:57;;;;;;;;;;;25.50;99.90;;;;;;4917377;28;20018;-80
2022/08/21 11:34:25;;;;;;;;;;;25.80;99.90;;;;;;4948902;28;19923;-80
2022/08/21 11:37:12;;;;;;;;;;;26.00;99.90;;;;;;4920029;28;19934;-82
2022/08/21 11:39:56;;;;;;;;;;;26.30;99.40;;;;;;4918265;29;20019;-81
2022/08/21 11:42:41;;;;;;;;;;;26.60;99.80;;;;;;4949885;28;20005;-81
2022/08/21 11:45:22;;;;;;;;;;;26.70;98.60;;;;;;4931945;28;20093;-81
2022/08/21 11:48:07;;;;;;;;;;;26.80;97.50;;;;;;4932814;28;19934;-79
2022/08/21 11:50:35;;;;;;;;;;;26.80;96.50;;;;;;4913171;28;20412;-82
2022/08/21 11:53:07;;;;;;;;;;;26.80;96.30;;;;;;4937032;28;19927;-82
2022/08/21 11:55:33;;;;;;;;;;;26.90;96.40;;;;;;4917067;29;20115;-82
2022/08/21 11:58:11;;;;;;;;;;;26.90;96.10;;;;;;4936415;29;20411;-84
2022/08/21 12:00:43;;;;;;;;;;;26.90;95.50;;;;;;4933646;29;19930;-81
2022/08/21 12:03:21;;;;;;;;;;;27.00;95.40;;;;;;4920268;28;19930;-81
2022/08/21 12:06:06;;;;;;;;;;;26.80;94.60;;;;;;4921410;28;19945;-86
2022/08/21 12:08:32;;;;;;;;;;;26.50;94.40;;;;;;4920706;28;20021;-82
2022/08/21 12:11:18;;;;;;;;;;;26.20;94.30;;;;;;4934079;28;20026;-83
2022/08/21 12:13:53;;;;;;;;;;;25.90;95.50;;;;;;4923504;28;20452;-81
2022/08/21 12:16:29;;;;;;;;;;;25.50;96.20;;;;;;4935817;28;19992;-82
2022/08/21 12:19:27;;;;;;;;;;;25.20;96.90;;;;;;4932634;28;20025;-80
2022/08/21 12:22:13;;;;;;;;;;;25.00;98.10;;;;;;4935530;28;19981;-82
2022/08/21 12:24:46;;;;;;;;;;;24.80;99.90;;;;;;4933354;28;19977;-81
2022/08/21 12:27:26;;;;;;;;;;;24.80;99.90;;;;;;4938219;28;19934;-80
2022/08/21 12:29:53;;;;;;;;;;;24.80;99.60;;;;;;4933204;28;20373;-81
2022/08/21 12:32:28;;;;;;;;;;;24.90;99.40;;;;;;4919069;28;20023;-87
2022/08/21 12:34:56;;;;;;;;;;;24.90;98.50;;;;;;4934575;28;20005;-81
2022/08/21 12:37:31;;;;;;;;;;;24.90;98.30;;;;;;4937203;28;19930;-80
2022/08/21 12:39:59;;;;;;;;;;;24.70;97.50;;;;;;4933371;28;19930;-80
2022/08/21 12:42:38;;;;;;;;;;;24.50;97.30;;;;;;4926241;28;19927;-81
2022/08/21 12:45:11;;;;;;;;;;;24.30;97.60;;;;;;4921876;28;20026;-81
2022/08/21 12:47:57;;;;;;;;;;;24.20;98.50;;;;;;4933393;28;19937;-84
2022/08/21 12:50:31;;;;;;;;;;;24.00;98.00;;;;;;4926034;28;19935;-81
2022/08/21 12:53:10;;;;;;;;;;;23.90;98.60;;;;;;4938357;28;20309;-81
2022/08/21 12:55:40;;;;;;;;;;;23.90;98.70;;;;;;4931484;28;20028;-82
2022/08/21 12:58:06;;;;;;;;;;;23.80;99.20;;;;;;4933200;28;19930;-82
2022/08/21 13:00:32;;;;;;;;;;;23.70;99.30;;;;;;4919879;28;19926;-81
2022/08/21 13:02:58;;;;;;;;;;;23.70;99.80;;;;;;4933849;28;19934;-82
2022/08/21 13:05:34;;;;;;;;;;;23.70;99.90;;;;;;4905283;28;20378;-80
2022/08/21 13:08:04;;;;;;;;;;;23.60;99.10;;;;;;4931776;28;19930;-81
2022/08/21 13:10:31;;;;;;;;;;;23.60;99.30;;;;;;4931443;28;20055;-80
2022/08/21 13:12:59;;;;;;;;;;;23.50;99.10;;;;;;4935073;28;19993;-80
2022/08/21 13:15:29;;;;;;;;;;;23.50;99.00;;;;;;4931803;28;19926;-86
2022/08/21 13:18:01;;;;;;;;;;;23.50;98.30;;;;;;4932633;28;19973;-84
2022/08/21 13:20:29;;;;;;;;;;;23.40;97.60;;;;;;4933259;28;19938;-84
2022/08/21 13:22:55;;;;;;;;;;;23.30;98.30;;;;;;4913517;28;19933;-82
2022/08/21 13:25:25;;;;;;;;;;;23.30;98.10;;;;;;4918659;28;19927;-82
2022/08/21 13:27:58;;;;;;;;;;;23.30;98.50;;;;;;4949163;28;19985;-83
2022/08/21 13:30:24;;;;;;;;;;;23.40;99.90;;;;;;4916898;28;19973;-78
2022/08/21 13:32:52;;;;;;;;;;;23.50;99.90;;;;;;4931820;28;19927;-81
2022/08/21 13:35:20;;;;;;;;;;;23.60;99.90;;;;;;4932859;28;20513;-81
2022/08/21 13:37:48;;;;;;;;;;;23.50;99.80;;;;;;4926905;29;19933;-80
2022/08/21 13:40:16;;;;;;;;;;;23.30;99.90;;;;;;4931695;28;20005;-80
2022/08/21 13:42:43;;;;;;;;;;;23.10;99.90;;;;;;4917181;28;19927;-80
2022/08/21 13:45:22;;;;;;;;;;;23.00;99.90;;;;;;4931182;28;19927;-81
2022/08/21 13:47:48;;;;;;;;;;;22.90;99.90;;;;;;4932127;28;19927;-80
2022/08/21 13:50:18;;;;;;;;;;;22.80;99.90;;;;;;4933130;28;19982;-81
2022/08/21 13:52:49;;;;;;;;;;;22.70;99.90;;;;;;4917630;28;19941;-81
2022/08/21 13:55:16;;;;;;;;;;;22.60;99.90;;;;;;4931577;28;19992;-82
2022/08/21 13:57:42;;;;;;;;;;;22.60;99.90;;;;;;4935521;28;20472;-79
2022/08/21 14:00:25;;;;;;;;;;;22.60;99.90;;;;;;4914615;28;20013;-81
2022/08/21 14:02:52;;;;;;;;;;;22.50;99.90;;;;;;4934051;28;20418;-81
2022/08/21 14:05:24;;;;;;;;;;;22.60;99.90;;;;;;4935406;29;19979;-80
2022/08/21 14:07:51;;;;;;;;;;;22.60;99.90;;;;;;4916948;29;19973;-84
2022/08/21 14:10:21;;;;;;;;;;;22.60;99.90;;;;;;4914775;29;19978;-80
2022/08/21 14:12:48;;;;;;;;;;;22.50;99.90;;;;;;4927775;28;19978;-79
2022/08/21 14:15:16;;;;;;;;;;;22.50;99.90;;;;;;4932200;28;19978;-81
2022/08/21 14:17:42;;;;;;;;;;;22.40;99.90;;;;;;4932399;28;19930;-79
2022/08/21 14:20:10;;;;;;;;;;;22.30;99.90;;;;;;4916732;28;19930;-81
2022/08/21 14:22:41;;;;;;;;;;;22.30;99.90;;;;;;4916004;28;20394;-82
2022/08/21 14:25:19;;;;;;;;;;;22.10;99.90;;;;;;4929677;28;19938;-81
2022/08/21 14:27:49;;;;;;;;;;;22.10;99.90;;;;;;4914458;29;19926;-81
2022/08/21 14:30:31;;;;;;;;;;;22.00;99.90;;;;;;4911351;28;19934;-80
2022/08/21 14:32:57;;;;;;;;;;;21.90;99.90;;;;;;4930229;28;19927;-81